Boyntonville, New York
Current Conditions -  °F | °C
As of 9:54 AM on Saturday 25 Oct 2014 (Local Time) from KDDH Reporting Station
Haze Haze  
Wind Chill: 47°   Ceiling: 1100
Heat Index: 47°   Visibility: 6mi
Dew Point: 43°   Wind: 3mph
Humidity: 86%   Direction: 210°SSW
Pressure: 29.81"   Gusts: NA
Location:  42.8782°N, 73.3625°W
Report Text: KDDH 251354Z AUTO 21003KT 6SM BR OVC011 08/06 A2981 RMK AO2 SLP096 T00830061
Loading
Personal Weather Stations






























Interactive Weather Map
Tropical Storm Tracking
New forecast layout! Learn more

10-Day Weather Forecast

Advertisements
Track Severe Weather on mobile